createdAt,value
2019-01-13T00:01:26.987Z,100016.84
2019-01-13T00:03:58.006Z,100008.72
2019-01-13T00:06:28.956Z,100012.84
2019-01-13T00:08:59.887Z,100008.19
2019-01-13T00:11:30.764Z,100005.88
2019-01-13T00:14:01.645Z,100013.34
2019-01-13T00:16:32.891Z,100014.65
2019-01-13T00:19:03.783Z,100010.66
2019-01-13T00:21:34.660Z,99994.68
2019-01-13T00:24:05.579Z,100000.73
2019-01-13T00:26:36.473Z,100012.97
2019-01-13T00:29:08.134Z,100007.49
2019-01-13T00:31:39.090Z,100001.69
2019-01-13T00:34:09.962Z,100007.43
2019-01-13T00:36:40.952Z,100015.72
2019-01-13T00:39:12.176Z,100015.16
2019-01-13T00:41:43.340Z,100015.72
2019-01-13T00:44:14.352Z,100015.28
2019-01-13T00:46:45.636Z,100010.96
2019-01-13T00:49:16.784Z,100019.77
2019-01-13T00:51:47.664Z,100022.88
2019-01-13T00:54:18.584Z,100016.77
2019-01-13T00:56:49.527Z,100011.92
2019-01-13T00:59:20.390Z,100018.75
2019-01-13T01:01:51.795Z,100011.03
2019-01-13T01:04:22.703Z,100011.23
2019-01-13T01:06:53.650Z,100012.05
2019-01-13T01:09:24.735Z,100015.98
2019-01-13T01:11:55.807Z,100017.13
2019-01-13T01:14:26.691Z,100011.36
2019-01-13T01:16:57.624Z,100015.28
2019-01-13T01:19:28.502Z,100011.95
2019-01-13T01:21:59.373Z,100010.70
2019-01-13T01:24:30.295Z,100004.22
2019-01-13T01:27:01.238Z,100002.67
2019-01-13T01:29:32.110Z,100009.14
2019-01-13T01:32:03.079Z,100009.76
2019-01-13T01:34:33.964Z,100003.83
2019-01-13T01:37:04.831Z,100006.14
2019-01-13T01:39:35.787Z,100009.17
2019-01-13T01:42:06.846Z,100008.78
2019-01-13T01:44:37.811Z,100007.48
2019-01-13T01:47:08.724Z,100004.78
2019-01-13T01:49:39.616Z,99998.56
2019-01-13T01:52:10.549Z,100005.20
2019-01-13T01:54:41.467Z,99992.64
2019-01-13T01:57:12.328Z,100002.72
2019-01-13T01:59:44.403Z,99990.56
2019-01-13T02:02:15.319Z,99990.00
2019-01-13T02:04:46.498Z,99996.25
2019-01-13T02:07:17.410Z,99981.95
2019-01-13T02:09:48.336Z,99983.56
2019-01-13T02:12:19.490Z,99989.80
2019-01-13T02:14:50.357Z,99989.14
2019-01-13T02:17:21.280Z,99983.92
2019-01-13T02:19:52.456Z,99984.64
2019-01-13T02:22:23.661Z,99982.32
2019-01-13T02:24:54.589Z,99981.31
2019-01-13T02:27:25.751Z,99980.05
2019-01-13T02:29:56.619Z,99983.23
2019-01-13T02:32:27.521Z,99972.86
2019-01-13T02:34:58.381Z,99982.38
2019-01-13T02:37:29.267Z,99984.25
2019-01-13T02:40:00.285Z,99975.11
2019-01-13T02:42:31.242Z,99980.52
2019-01-13T02:45:02.116Z,99972.14
2019-01-13T02:47:33.324Z,99964.55
2019-01-13T02:50:04.469Z,99963.83
2019-01-13T02:52:35.401Z,99959.16
2019-01-13T02:55:06.969Z,99960.55
2019-01-13T02:57:38.211Z,99959.53
2019-01-13T03:00:14.467Z,99961.45
2019-01-13T03:02:45.496Z,99966.73
2019-01-13T03:05:17.060Z,99957.61
2019-01-13T03:07:48.058Z,99971.75
2019-01-13T03:10:24.935Z,99979.59
2019-01-13T03:12:56.131Z,99982.20
2019-01-13T03:15:28.059Z,99969.72
2019-01-13T03:17:59.296Z,99986.20
2019-01-13T03:20:30.632Z,99980.05
2019-01-13T03:23:01.489Z,99971.20
2019-01-13T03:25:32.645Z,99975.64
2019-01-13T03:28:03.580Z,99974.20
2019-01-13T03:30:34.528Z,99971.06
2019-01-13T03:33:05.490Z,99969.06
2019-01-13T03:35:36.485Z,99962.23
2019-01-13T03:38:07.471Z,99958.51
2019-01-13T03:40:39.085Z,99965.38
2019-01-13T03:43:10.406Z,99963.52
2019-01-13T03:45:41.268Z,99954.97
2019-01-13T03:48:12.532Z,99954.50
2019-01-13T03:50:43.534Z,99948.06
2019-01-13T03:53:14.464Z,99944.34
2019-01-13T03:55:45.330Z,99940.61
2019-01-13T03:58:16.322Z,99942.91
2019-01-13T04:00:47.194Z,99940.55
2019-01-13T04:03:18.060Z,99931.72
2019-01-13T04:05:48.983Z,99924.06
2019-01-13T04:08:20.139Z,99931.32
2019-01-13T04:10:51.032Z,99920.55
2019-01-13T04:13:22.002Z,99913.16
2019-01-13T04:16:02.162Z,99905.24
2019-01-13T04:18:33.092Z,99909.28
2019-01-13T04:21:04.083Z,99891.19
2019-01-13T04:23:34.941Z,99888.56
2019-01-13T04:26:05.842Z,99882.38
2019-01-13T04:28:36.707Z,99877.27
2019-01-13T04:31:07.582Z,99871.54
2019-01-13T04:33:38.511Z,99876.05
2019-01-13T04:36:09.477Z,99872.72
2019-01-13T04:38:40.343Z,99863.24
2019-01-13T04:41:11.293Z,99856.66
2019-01-13T04:43:42.197Z,99867.17
2019-01-13T04:46:14.106Z,99858.38
2019-01-13T04:48:45.025Z,99848.25
2019-01-13T04:51:15.893Z,99847.25
2019-01-13T04:53:46.755Z,99839.63
2019-01-13T04:56:17.684Z,99845.42
2019-01-13T04:58:48.564Z,99836.19
2019-01-13T05:01:19.744Z,99844.78
2019-01-13T05:03:50.724Z,99844.02
2019-01-13T05:06:21.899Z,99845.14
2019-01-13T05:08:52.858Z,99834.11
2019-01-13T05:11:23.832Z,99832.14
2019-01-13T05:13:54.718Z,99822.59
2019-01-13T05:16:25.591Z,99828.03
2019-01-13T05:18:56.513Z,99828.69
2019-01-13T05:21:27.383Z,99828.32
2019-01-13T05:23:58.819Z,99833.30
2019-01-13T05:26:29.732Z,99829.00
2019-01-13T05:29:00.702Z,99819.92
2019-01-13T05:31:31.556Z,99818.06
2019-01-13T05:34:02.466Z,99816.70
2019-01-13T05:36:33.331Z,99808.90
2019-01-13T05:39:05.425Z,99812.52
2019-01-13T05:41:36.334Z,99802.70
2019-01-13T05:44:07.196Z,99805.11
2019-01-13T05:46:38.081Z,99803.31
2019-01-13T05:49:09.069Z,99783.38
2019-01-13T05:51:40.272Z,99782.95
2019-01-13T05:54:11.151Z,99782.02
2019-01-13T05:56:42.358Z,99778.47
2019-01-13T05:59:13.226Z,99772.27
2019-01-13T06:01:49.115Z,99770.33
2019-01-13T06:04:16.738Z,99778.05
2019-01-13T06:06:47.631Z,99772.89
2019-01-13T06:09:18.502Z,99772.32
2019-01-13T06:11:49.419Z,99770.80
2019-01-13T06:14:20.277Z,99763.34
2019-01-13T06:16:51.427Z,99766.31
2019-01-13T06:19:22.375Z,99759.68
2019-01-13T06:21:53.529Z,99763.16
2019-01-13T06:24:24.408Z,99767.72
2019-01-13T06:26:55.325Z,99754.61
2019-01-13T06:29:26.185Z,99759.44
2019-01-13T06:31:57.337Z,99753.78
2019-01-13T06:34:28.258Z,99750.12
2019-01-13T06:36:59.137Z,99753.23
2019-01-13T06:39:30.018Z,99743.52
2019-01-13T06:42:00.920Z,99746.21
2019-01-13T06:44:31.780Z,99747.58
2019-01-13T06:47:02.688Z,99743.52
2019-01-13T06:49:33.869Z,99743.64
2019-01-13T06:52:04.752Z,99738.61
2019-01-13T06:54:35.960Z,99742.70
2019-01-13T06:57:06.871Z,99744.77
2019-01-13T06:59:37.720Z,99743.67
2019-01-13T07:02:08.616Z,99735.51
2019-01-13T07:04:40.625Z,99739.42
2019-01-13T07:07:11.554Z,99739.97
2019-01-13T07:09:42.495Z,99738.52
2019-01-13T07:12:13.411Z,99722.98
2019-01-13T07:14:44.274Z,99715.48
2019-01-13T07:17:15.527Z,99713.73
2019-01-13T07:19:46.545Z,99711.08
2019-01-13T07:22:17.407Z,99688.04
2019-01-13T07:24:48.275Z,99679.80
2019-01-13T07:27:19.221Z,99696.23
2019-01-13T07:29:50.134Z,99695.92
2019-01-13T07:32:21.923Z,99696.90
2019-01-13T07:34:52.827Z,99684.72
2019-01-13T07:37:23.719Z,99681.13
2019-01-13T07:39:54.631Z,99668.02
2019-01-13T07:42:25.574Z,99659.84
2019-01-13T07:44:56.523Z,99650.29
2019-01-13T07:47:27.419Z,99637.09
2019-01-13T07:49:58.350Z,99637.48
2019-01-13T07:52:29.256Z,99627.69
2019-01-13T07:55:00.169Z,99613.22
2019-01-13T07:57:31.100Z,99600.72
2019-01-13T08:00:01.989Z,99600.41
2019-01-13T08:02:32.889Z,99593.30
2019-01-13T08:05:03.838Z,99590.73
2019-01-13T08:07:35.007Z,99583.83
2019-01-13T08:10:08.004Z,99576.10
2019-01-13T08:12:38.935Z,99567.47
2019-01-13T08:15:11.844Z,99559.06
2019-01-13T08:17:43.006Z,99552.15
2019-01-13T08:20:21.674Z,99540.70
2019-01-13T08:22:52.790Z,99538.00
2019-01-13T08:25:24.326Z,99531.92
2019-01-13T08:27:55.536Z,99531.46
2019-01-13T08:30:26.721Z,99519.66
2019-01-13T08:32:57.712Z,99503.05
2019-01-13T08:35:29.001Z,99495.70
2019-01-13T08:37:59.852Z,99485.30
2019-01-13T08:40:30.759Z,99477.36
2019-01-13T08:43:01.641Z,99473.11
2019-01-13T08:45:32.585Z,99477.19
2019-01-13T08:48:03.474Z,99462.33
2019-01-13T08:50:34.656Z,99465.20
2019-01-13T08:53:05.538Z,99457.42
2019-01-13T08:55:36.708Z,99461.05
2019-01-13T08:58:07.631Z,99451.20
2019-01-13T09:00:38.503Z,99449.11
2019-01-13T09:03:10.094Z,99438.58
2019-01-13T09:05:40.981Z,99430.55
2019-01-13T09:08:11.839Z,99412.02
2019-01-13T09:10:42.750Z,99423.59
2019-01-13T09:13:13.909Z,99406.58
2019-01-13T09:15:45.070Z,99395.92
2019-01-13T09:18:15.968Z,99394.98
2019-01-13T09:20:46.851Z,99383.25
2019-01-13T09:23:17.793Z,99381.40
2019-01-13T09:25:48.664Z,99383.54
2019-01-13T09:28:19.544Z,99379.23
2019-01-13T09:30:50.470Z,99370.59
2019-01-13T09:33:21.346Z,99367.73
2019-01-13T09:35:52.319Z,99368.31
2019-01-13T09:38:24.787Z,99363.77
2019-01-13T09:40:55.667Z,99357.01
2019-01-13T09:43:26.585Z,99345.14
2019-01-13T09:45:57.475Z,99344.81
2019-01-13T09:48:28.747Z,99337.31
2019-01-13T09:50:59.622Z,99327.02
2019-01-13T09:53:30.510Z,99328.30
2019-01-13T09:56:01.488Z,99323.77
2019-01-13T09:58:32.353Z,99319.74
2019-01-13T10:01:03.380Z,99311.44
2019-01-13T10:03:34.252Z,99297.65
2019-01-13T10:06:05.640Z,99295.27
2019-01-13T10:08:36.852Z,99285.69
2019-01-13T10:11:07.800Z,99280.36
2019-01-13T10:13:38.998Z,99284.33
2019-01-13T10:16:09.891Z,99278.54
2019-01-13T10:18:40.852Z,99272.47
2019-01-13T10:21:11.790Z,99262.05
2019-01-13T10:23:42.657Z,99267.14
2019-01-13T10:26:13.582Z,99254.77
2019-01-13T10:28:44.551Z,99245.56
2019-01-13T10:31:15.434Z,99239.45
2019-01-13T10:33:46.667Z,99233.28
2019-01-13T10:36:17.943Z,99229.41
2019-01-13T10:38:48.906Z,99226.19
2019-01-13T10:41:19.862Z,99221.13
2019-01-13T10:43:50.738Z,99212.70
2019-01-13T10:46:21.936Z,99199.98
2019-01-13T10:48:53.168Z,99193.89
2019-01-13T10:51:24.166Z,99196.66
2019-01-13T10:53:55.033Z,99183.84
2019-01-13T10:56:26.197Z,99179.58
2019-01-13T10:58:57.104Z,99183.65
2019-01-13T11:01:28.200Z,99179.38
2019-01-13T11:03:59.289Z,99174.41
2019-01-13T11:06:30.445Z,99168.80
2019-01-13T11:09:01.318Z,99169.61
2019-01-13T11:11:32.302Z,99162.03
2019-01-13T11:14:03.247Z,99159.45
2019-01-13T11:16:34.168Z,99148.37
2019-01-13T11:19:05.166Z,99138.69
2019-01-13T11:21:36.048Z,99144.53
2019-01-13T11:24:06.956Z,99142.56
2019-01-13T11:26:37.897Z,99136.55
2019-01-13T11:29:09.110Z,99142.49
2019-01-13T11:31:40.052Z,99134.61
2019-01-13T11:34:10.910Z,99126.79
2019-01-13T11:36:41.829Z,99123.09
2019-01-13T11:39:12.707Z,99109.15
2019-01-13T11:41:44.981Z,99093.61
2019-01-13T11:44:15.870Z,99090.61
2019-01-13T11:46:46.756Z,99079.45
2019-01-13T11:49:20.290Z,99076.09
2019-01-13T11:51:51.234Z,99071.59
2019-01-13T11:54:22.989Z,99067.87
2019-01-13T11:56:54.181Z,99064.19
2019-01-13T11:59:25.354Z,99061.23
2019-01-13T12:01:56.850Z,99059.36
2019-01-13T12:04:27.849Z,99057.14
2019-01-13T12:06:58.767Z,99037.09
2019-01-13T12:09:29.721Z,99034.19
2019-01-13T12:12:00.728Z,99028.36
2019-01-13T12:14:32.063Z,99029.39
2019-01-13T12:17:03.243Z,99012.22
2019-01-13T12:19:34.413Z,99028.34
2019-01-13T12:22:06.246Z,99012.49
2019-01-13T12:24:37.208Z,99020.58
2019-01-13T12:27:08.424Z,99006.21
2019-01-13T12:29:39.699Z,98996.72
2019-01-13T12:32:10.598Z,98992.10
2019-01-13T12:34:41.579Z,98991.44
2019-01-13T12:37:12.493Z,98991.44
2019-01-13T12:39:43.464Z,98985.69
2019-01-13T12:42:14.365Z,98983.48
2019-01-13T12:44:45.284Z,98983.11
2019-01-13T12:47:16.852Z,98984.81
2019-01-13T12:49:47.738Z,98969.63
2019-01-13T12:52:22.570Z,98970.00
2019-01-13T12:54:53.446Z,98961.66
2019-01-13T12:57:24.325Z,98963.69
2019-01-13T12:59:55.572Z,98956.27
2019-01-13T13:02:26.777Z,98945.78
2019-01-13T13:04:58.007Z,98948.22
2019-01-13T13:07:28.930Z,98940.94
2019-01-13T13:09:59.822Z,98936.95
2019-01-13T13:12:30.783Z,98934.47
2019-01-13T13:15:01.960Z,98918.08
2019-01-13T13:18:26.483Z,98918.79
2019-01-13T13:20:57.414Z,98910.77
2019-01-13T13:23:28.648Z,98911.63
2019-01-13T13:25:59.589Z,98906.41
2019-01-13T13:28:30.439Z,98904.31
2019-01-13T13:31:01.365Z,98896.56
2019-01-13T13:33:38.775Z,98888.02
2019-01-13T13:36:09.435Z,98890.83
2019-01-13T13:38:40.468Z,98889.80
2019-01-13T13:41:13.907Z,98882.74
2019-01-13T13:43:42.145Z,98878.38
2019-01-13T13:46:13.125Z,98881.78
2019-01-13T13:48:44.022Z,98876.88
2019-01-13T13:51:15.316Z,98872.00
2019-01-13T13:53:46.246Z,98868.05
2019-01-13T13:56:17.167Z,98874.77
2019-01-13T13:58:49.687Z,98878.23
2019-01-13T14:01:20.629Z,98867.02
2019-01-13T14:03:51.962Z,98852.88
2019-01-13T14:06:23.222Z,98838.41
2019-01-13T14:08:55.252Z,98840.06
2019-01-13T14:11:26.504Z,98843.50
2019-01-13T14:13:58.035Z,98839.14
2019-01-13T14:16:29.027Z,98839.62
2019-01-13T14:18:59.951Z,98818.33
2019-01-13T14:21:30.867Z,98808.21
2019-01-13T14:24:02.030Z,98794.73
2019-01-13T14:26:33.218Z,98799.36
2019-01-13T14:29:04.188Z,98799.05
2019-01-13T14:31:36.498Z,98797.06
2019-01-13T14:34:08.493Z,98792.42
2019-01-13T14:36:39.668Z,98786.66
2019-01-13T14:39:10.878Z,98787.84
2019-01-13T14:41:41.770Z,98784.89
2019-01-13T14:44:12.690Z,98793.44
2019-01-13T14:46:43.649Z,98798.18
2019-01-13T14:49:14.554Z,98807.38
2019-01-13T14:51:45.466Z,98793.83
2019-01-13T14:54:16.629Z,98782.64
2019-01-13T14:56:48.716Z,98787.30
2019-01-13T14:59:19.622Z,98778.08
2019-01-13T15:01:50.500Z,98771.06
2019-01-13T15:04:33.317Z,98767.11
2019-01-13T15:07:04.214Z,98768.84
2019-01-13T15:09:35.816Z,98757.00
2019-01-13T15:12:07.074Z,98752.28
2019-01-13T15:14:37.961Z,98750.36
2019-01-13T15:17:08.891Z,98744.02
2019-01-13T15:19:39.767Z,98735.15
2019-01-13T15:22:10.740Z,98737.40
2019-01-13T15:24:41.620Z,98729.73
2019-01-13T15:27:12.818Z,98721.64
2019-01-13T15:29:46.334Z,98717.06
2019-01-13T15:32:19.522Z,98711.64
2019-01-13T15:34:51.519Z,98700.36
2019-01-13T15:37:22.393Z,98699.32
2019-01-13T15:39:53.283Z,98702.58
2019-01-13T15:42:24.185Z,98702.02
2019-01-13T15:44:55.357Z,98696.77
2019-01-13T15:47:26.589Z,98690.78
2019-01-13T15:49:57.767Z,98689.97
2019-01-13T15:52:28.648Z,98689.75
2019-01-13T15:54:59.979Z,98683.15
2019-01-13T15:57:30.845Z,98677.62
2019-01-13T16:00:01.785Z,98675.28
2019-01-13T16:02:33.043Z,98673.13
2019-01-13T16:05:04.049Z,98667.37
2019-01-13T16:07:34.962Z,98668.88
2019-01-13T16:10:08.643Z,98662.88
2019-01-13T16:12:39.917Z,98654.91
2019-01-13T16:15:11.639Z,98648.08
2019-01-13T16:17:42.803Z,98654.11
2019-01-13T16:20:24.171Z,98644.94
2019-01-13T16:22:55.061Z,98639.31
2019-01-13T16:25:25.977Z,98626.53
2019-01-13T16:27:56.859Z,98612.90
2019-01-13T16:30:29.245Z,98620.19
2019-01-13T16:33:00.144Z,98612.31
2019-01-13T16:35:31.118Z,98606.09
2019-01-13T16:38:02.358Z,98607.23
2019-01-13T16:40:33.215Z,98595.13
2019-01-13T16:43:04.104Z,98589.41
2019-01-13T16:45:35.309Z,98596.79
2019-01-13T16:48:07.221Z,98613.22
2019-01-13T16:50:38.430Z,98605.52
2019-01-13T16:53:09.303Z,98589.04
2019-01-13T16:55:43.354Z,98608.05
2019-01-13T16:58:14.541Z,98596.63
2019-01-13T17:00:45.432Z,98595.20
2019-01-13T17:03:16.499Z,98602.14
2019-01-13T17:05:48.461Z,98665.85
2019-01-13T17:08:19.685Z,98703.89
2019-01-13T17:10:50.642Z,98650.20
2019-01-13T17:13:21.830Z,98687.39
2019-01-13T17:15:52.767Z,98693.70
2019-01-13T17:18:23.991Z,98692.25
2019-01-13T17:20:55.236Z,98709.95
2019-01-13T17:23:26.155Z,98685.61
2019-01-13T17:25:59.370Z,98681.42
2019-01-13T17:28:30.361Z,98699.95
2019-01-13T17:31:01.270Z,98703.20
2019-01-13T17:33:32.162Z,98701.24
2019-01-13T17:36:03.069Z,98693.52
2019-01-13T17:38:34.376Z,98704.81
2019-01-13T17:41:05.304Z,98708.47
2019-01-13T17:43:36.195Z,98710.42
2019-01-13T17:46:07.273Z,98718.68
2019-01-13T17:48:38.157Z,98708.40
2019-01-13T17:51:09.389Z,98705.09
2019-01-13T17:53:40.334Z,98717.86
2019-01-13T17:56:11.522Z,98717.12
2019-01-13T17:58:42.776Z,98721.27
2019-01-13T18:01:54.485Z,98714.09
2019-01-13T18:04:25.504Z,98716.02
2019-01-13T18:06:56.430Z,98710.95
2019-01-13T18:09:27.562Z,98708.38
2019-01-13T18:11:58.740Z,98700.65
2019-01-13T18:14:29.650Z,98704.70
2019-01-13T18:17:06.417Z,98690.35
2019-01-13T18:19:33.220Z,98691.88
2019-01-13T18:22:05.716Z,98702.73
2019-01-13T18:24:36.666Z,98698.97
2019-01-13T18:27:07.618Z,98709.14
2019-01-13T18:29:38.850Z,98695.78
2019-01-13T18:32:09.861Z,98713.75
2019-01-13T18:34:40.761Z,98695.72
2019-01-13T18:37:11.731Z,98720.08
2019-01-13T18:39:43.189Z,98717.81
2019-01-13T18:42:14.115Z,98720.08
2019-01-13T18:44:45.119Z,98708.39
2019-01-13T18:47:18.855Z,98721.91
2019-01-13T18:49:50.084Z,98722.53
2019-01-13T18:52:21.270Z,98720.87
2019-01-13T18:54:52.145Z,98722.53
2019-01-13T18:57:23.885Z,98725.55
2019-01-13T18:59:54.795Z,98718.83
2019-01-13T19:02:26.076Z,98733.27
2019-01-13T19:04:57.378Z,98724.94
2019-01-13T19:07:30.099Z,98728.38
2019-01-13T19:10:00.993Z,98730.83
2019-01-13T19:12:32.257Z,98736.36
2019-01-13T19:15:06.141Z,98746.73
2019-01-13T19:17:37.394Z,98746.97
2019-01-13T19:20:21.875Z,98751.51
2019-01-13T19:22:56.940Z,98727.95
2019-01-13T19:25:33.415Z,98732.59
2019-01-13T19:28:04.419Z,98738.86
2019-01-13T19:30:35.684Z,98745.67
2019-01-13T19:33:06.916Z,98742.72
2019-01-13T19:35:38.289Z,98740.64
2019-01-13T19:38:09.723Z,98745.79
2019-01-13T19:40:40.852Z,98756.92
2019-01-13T19:43:12.614Z,98739.28
2019-01-13T19:45:44.586Z,98737.79
2019-01-13T19:48:20.710Z,98747.87
2019-01-13T19:50:53.115Z,98747.42
2019-01-13T19:53:24.814Z,98742.92
2019-01-13T19:55:56.191Z,98747.59
2019-01-13T19:58:27.614Z,98736.20
2019-01-13T20:00:59.252Z,98740.80
2019-01-13T20:03:30.534Z,98750.11
2019-01-13T20:06:01.883Z,98741.00
2019-01-13T20:08:33.206Z,98738.23
2019-01-13T20:11:05.648Z,98727.22
2019-01-13T20:13:38.362Z,98724.52
2019-01-13T20:16:11.689Z,98733.98
2019-01-13T20:18:43.884Z,98734.55
2019-01-13T20:21:15.349Z,98734.25
2019-01-13T20:23:46.536Z,98733.63
2019-01-13T20:26:18.753Z,98737.56
2019-01-13T20:28:50.216Z,98732.25
2019-01-13T20:31:21.540Z,98717.23
2019-01-13T20:33:55.848Z,98726.63
2019-01-13T20:36:27.242Z,98735.16
2019-01-13T20:38:59.652Z,98738.19
2019-01-13T20:41:30.541Z,98726.90
2019-01-13T20:44:01.462Z,98721.55
2019-01-13T20:46:32.665Z,98718.59
2019-01-13T20:49:03.918Z,98712.05
2019-01-13T20:51:34.814Z,98696.05
2019-01-13T20:54:07.997Z,98699.61
2019-01-13T20:56:38.518Z,98717.75
2019-01-13T20:59:09.444Z,98722.33
2019-01-13T21:01:40.648Z,98737.52
2019-01-13T21:04:11.551Z,98740.83
2019-01-13T21:06:43.071Z,98747.38
2019-01-13T21:09:14.002Z,98744.94
2019-01-13T21:11:45.733Z,98759.65
2019-01-13T21:14:16.695Z,98769.34
2019-01-13T21:16:48.753Z,98778.53
2019-01-13T21:19:19.685Z,98782.33
2019-01-13T21:21:50.646Z,98782.77
2019-01-13T21:24:21.575Z,98784.36
2019-01-13T21:26:52.535Z,98784.43
2019-01-13T21:29:23.434Z,98787.28
2019-01-13T21:31:54.315Z,98795.03
2019-01-13T21:34:25.239Z,98795.85
2019-01-13T21:36:56.120Z,98796.67
2019-01-13T21:39:27.033Z,98800.09
2019-01-13T21:41:58.192Z,98795.66
2019-01-13T21:44:30.947Z,98804.67
2019-01-13T21:47:02.159Z,98805.69
2019-01-13T21:49:33.101Z,98807.25
2019-01-13T21:52:04.310Z,98813.14
2019-01-13T21:54:35.206Z,98805.31
2019-01-13T21:57:06.299Z,98807.53
2019-01-13T21:59:37.193Z,98813.23
2019-01-13T22:02:08.961Z,98806.18
2019-01-13T22:04:39.951Z,98794.59
2019-01-13T22:07:11.628Z,98794.48
2019-01-13T22:09:42.552Z,98801.10
2019-01-13T22:12:13.423Z,98802.31
2019-01-13T22:14:44.362Z,98816.20
2019-01-13T22:17:15.539Z,98838.92
2019-01-13T22:19:46.420Z,98842.52
2019-01-13T22:22:17.402Z,98863.05
2019-01-13T22:24:48.316Z,98855.33
2019-01-13T22:27:19.232Z,98876.28
2019-01-13T22:29:50.099Z,98854.88
2019-01-13T22:32:20.971Z,98853.39
2019-01-13T22:34:51.877Z,98855.79
2019-01-13T22:37:22.738Z,98875.89
2019-01-13T22:39:53.651Z,98876.25
2019-01-13T22:42:24.520Z,98878.06
2019-01-13T22:44:55.394Z,98893.55
2019-01-13T22:47:26.314Z,98886.77
2019-01-13T22:49:57.176Z,98877.97
2019-01-13T22:52:28.103Z,98892.41
2019-01-13T22:54:59.053Z,98893.47
2019-01-13T22:57:29.947Z,98899.91
2019-01-13T23:00:01.209Z,98904.05
2019-01-13T23:02:32.150Z,98911.42
2019-01-13T23:05:03.134Z,98909.53
2019-01-13T23:07:34.194Z,98909.91
2019-01-13T23:10:05.714Z,98933.74
2019-01-13T23:12:36.577Z,98933.74
2019-01-13T23:15:07.921Z,98944.61
2019-01-13T23:17:38.819Z,98940.66
2019-01-13T23:20:10.384Z,98952.18
2019-01-13T23:22:41.309Z,98951.00
2019-01-13T23:25:12.202Z,98960.94
2019-01-13T23:27:43.079Z,98962.14
2019-01-13T23:30:14.035Z,98985.48
2019-01-13T23:32:45.184Z,98997.41
2019-01-13T23:35:16.099Z,98990.77
2019-01-13T23:37:46.970Z,98995.81
2019-01-13T23:40:17.843Z,99007.77
2019-01-13T23:42:48.746Z,99008.97
2019-01-13T23:45:19.608Z,99013.09
2019-01-13T23:47:50.516Z,99022.70
2019-01-13T23:50:21.389Z,99024.72
2019-01-13T23:52:52.249Z,99026.32
2019-01-13T23:55:23.218Z,99032.37
2019-01-13T23:57:54.082Z,99030.83
